Time;durP1;ratioP1;P1;durP2;ratioP2;P2;SDS_P1;SDS_P2;PMS_P1;PMS_P2;Temp;Humidity;BMP_temperature;BMP_pressure;BME280_temperature;BME280_humidity;BME280_pressure;Samples;Min_cycle;Max_cycle;Signal;HPM_P1;HPM_P2
2023/12/13 00:01:51;;;;;;;6.23;5.13;;;;;;;-3.92;100.00;100763.44;5065951;28;20054;-66
2023/12/13 00:04:17;;;;;;;6.73;4.67;;;;;;;-3.73;100.00;100783.41;5064687;28;20119;-64
2023/12/13 00:06:42;;;;;;;8.43;6.03;;;;;;;-3.75;100.00;100770.47;5064694;28;20037;-65
2023/12/13 00:09:08;;;;;;;7.03;5.40;;;;;;;-3.85;100.00;100749.22;5064848;28;20073;-65
2023/12/13 00:11:34;;;;;;;9.40;5.43;;;;;;;-3.58;100.00;100783.53;5069575;28;20041;-67
2023/12/13 00:14:00;;;;;;;8.63;5.82;;;;;;;-3.56;100.00;100797.31;5063919;28;20277;-63
2023/12/13 00:16:25;;;;;;;6.93;5.17;;;;;;;-3.67;100.00;100776.16;5053793;28;20530;-66
2023/12/13 00:18:51;;;;;;;6.83;6.10;;;;;;;-3.59;100.00;100781.84;5052957;28;20058;-68
2023/12/13 00:21:17;;;;;;;10.73;6.53;;;;;;;-3.66;100.00;100785.66;5053008;28;20392;-64
2023/12/13 00:23:45;;;;;;;8.35;5.80;;;;;;;-3.86;100.00;100764.91;5053263;28;20036;-63
2023/12/13 00:26:18;;;;;;;8.57;5.90;;;;;;;-3.84;100.00;100769.13;5052691;28;20466;-66
2023/12/13 00:28:45;;;;;;;12.85;7.82;;;;;;;-3.87;100.00;100782.28;5037267;28;20033;-64
2023/12/13 00:31:11;;;;;;;10.90;6.70;;;;;;;-3.90;100.00;100760.75;5052026;28;20044;-64
2023/12/13 00:33:39;;;;;;;13.75;7.53;;;;;;;-3.82;100.00;100779.47;5052492;28;20052;-67
2023/12/13 00:36:05;;;;;;;12.98;6.85;;;;;;;-3.71;100.00;100786.78;5052800;28;20263;-66
2023/12/13 00:38:31;;;;;;;11.50;6.93;;;;;;;-3.70;100.00;100778.91;5051616;28;20412;-65
2023/12/13 00:40:57;;;;;;;13.20;7.07;;;;;;;-3.81;100.00;100749.91;5052866;28;20037;-64
2023/12/13 00:43:22;;;;;;;10.27;7.30;;;;;;;-3.81;100.00;100744.72;5052893;28;20454;-65
2023/12/13 00:45:48;;;;;;;8.67;6.67;;;;;;;-3.51;100.00;100784.91;5052655;28;20063;-64
2023/12/13 00:48:14;;;;;;;12.03;6.43;;;;;;;-3.57;100.00;100768.75;5052452;28;20120;-65
2023/12/13 00:50:40;;;;;;;17.47;9.13;;;;;;;-3.53;100.00;100776.34;5051311;28;20322;-64
2023/12/13 00:53:06;;;;;;;12.20;7.07;;;;;;;-3.50;100.00;100770.97;5051150;28;20427;-65
2023/12/13 00:55:31;;;;;;;15.00;7.60;;;;;;;-3.51;100.00;100764.09;5051106;28;20041;-64
2023/12/13 00:57:58;;;;;;;17.63;8.63;;;;;;;-3.60;100.00;100743.72;5052448;28;20033;-65
2023/12/13 01:00:23;;;;;;;11.68;8.05;;;;;;;-4.32;100.00;100630.97;5052415;28;20033;-65
2023/12/13 01:02:49;;;;;;;11.57;8.33;;;;;;;-3.82;100.00;100704.84;5052065;28;20124;-62
2023/12/13 01:05:15;;;;;;;12.73;7.50;;;;;;;-3.49;100.00;100761.41;5050179;28;20107;-63
2023/12/13 01:07:45;;;;;;;15.13;9.03;;;;;;;-3.45;100.00;100766.41;5051902;28;20754;-64
2023/12/13 01:10:11;;;;;;;17.10;8.27;;;;;;;-3.38;100.00;100773.94;5051800;28;20307;-63
2023/12/13 01:12:39;;;;;;;13.63;8.17;;;;;;;-3.49;100.00;100758.81;5050631;28;20078;-65
2023/12/13 01:15:05;;;;;;;13.00;8.18;;;;;;;-3.40;100.00;100770.56;5052139;28;20623;-64
2023/12/13 01:17:32;;;;;;;12.60;7.23;;;;;;;-3.42;100.00;100760.22;5052173;28;20137;-67
2023/12/13 01:19:58;;;;;;;14.73;7.20;;;;;;;-3.25;100.00;100772.41;5051042;28;20465;-65
2023/12/13 01:22:23;;;;;;;13.27;7.83;;;;;;;-3.47;100.00;100725.72;5051862;28;20033;-65
2023/12/13 01:24:49;;;;;;;9.93;6.80;;;;;;;-3.24;100.00;100761.06;5051454;28;20029;-64
2023/12/13 01:27:15;;;;;;;11.63;7.23;;;;;;;-3.40;100.00;100734.09;5051488;28;20037;-65
2023/12/13 01:29:41;;;;;;;11.05;7.20;;;;;;;-3.21;100.00;100766.13;5051610;28;20123;-65
2023/12/13 01:32:06;;;;;;;15.23;6.90;;;;;;;-3.49;100.00;100720.59;5051953;28;20049;-64
2023/12/13 01:34:32;;;;;;;10.67;6.77;;;;;;;-3.28;100.00;100768.19;5052384;28;20035;-65
2023/12/13 01:36:57;;;;;;;9.57;8.23;;;;;;;-3.57;100.00;100712.31;5051997;28;20476;-64
2023/12/13 01:39:23;;;;;;;15.00;8.07;;;;;;;-3.31;100.00;100744.91;5051813;28;20036;-64
2023/12/13 01:41:49;;;;;;;16.17;8.63;;;;;;;-3.32;100.00;100738.00;5050507;28;20047;-64
2023/12/13 01:44:14;;;;;;;9.53;7.20;;;;;;;-3.33;100.00;100740.69;5051537;28;20043;-64
2023/12/13 01:46:41;;;;;;;9.03;6.53;;;;;;;-3.18;100.00;100758.16;5051567;28;20123;-65
2023/12/13 01:49:08;;;;;;;14.75;7.68;;;;;;;-3.21;100.00;100759.16;5051930;28;20084;-64
2023/12/13 01:51:37;;;;;;;10.23;7.13;;;;;;;-3.40;100.00;100719.31;5051236;28;20076;-64
2023/12/13 01:54:06;;;;;;;10.52;7.35;;;;;;;-3.30;100.00;100732.72;5051489;28;20496;-64
2023/12/13 01:56:32;;;;;;;9.10;7.38;;;;;;;-3.13;100.00;100748.38;5051661;28;20045;-64
2023/12/13 01:58:58;;;;;;;9.82;6.90;;;;;;;-3.35;100.00;100721.69;5051536;28;20036;-63
2023/12/13 02:01:24;;;;;;;11.23;7.67;;;;;;;-3.29;100.00;100727.44;5050113;28;20044;-64
2023/12/13 02:03:49;;;;;;;13.10;8.70;;;;;;;-3.40;100.00;100724.53;5051350;28;20036;-64
2023/12/13 02:06:15;;;;;;;12.17;7.67;;;;;;;-3.20;100.00;100754.78;5050102;28;20511;-66
2023/12/13 02:08:42;;;;;;;13.57;8.07;;;;;;;-3.28;100.00;100743.91;5049781;28;20485;-64
2023/12/13 02:11:07;;;;;;;10.15;7.03;;;;;;;-3.22;100.00;100749.66;5050781;28;20076;-66
2023/12/13 02:13:34;;;;;;;13.50;8.17;;;;;;;-3.21;100.00;100751.34;5050894;28;20047;-63
2023/12/13 02:16:01;;;;;;;11.07;6.95;;;;;;;-3.36;100.00;100715.66;5049901;28;20029;-63
2023/12/13 02:18:27;;;;;;;10.82;8.23;;;;;;;-3.32;100.00;100732.81;5053317;28;20041;-64
2023/12/13 02:21:13;;;;;;;13.27;7.25;;;;;;;-3.26;100.00;100729.06;5054298;28;20588;-64
2023/12/13 02:23:39;;;;;;;14.03;8.20;;;;;;;-3.18;100.00;100737.31;5055217;28;20043;-64
2023/12/13 02:26:08;;;;;;;11.73;7.90;;;;;;;-3.11;100.00;100741.34;5054143;28;20103;-64
2023/12/13 02:28:34;;;;;;;10.90;7.55;;;;;;;-3.13;100.00;100737.97;5055053;28;20033;-65
2023/12/13 02:31:00;;;;;;;9.60;6.60;;;;;;;-3.15;100.00;100740.66;5055312;28;20037;-67
2023/12/13 02:33:27;;;;;;;8.60;6.82;;;;;;;-3.13;100.00;100732.75;5055058;28;20407;-63
2023/12/13 02:35:54;;;;;;;10.90;6.47;;;;;;;-3.06;100.00;100739.34;5054924;28;20045;-64
2023/12/13 02:38:20;;;;;;;11.23;7.07;;;;;;;-3.24;100.00;100724.59;5054703;28;20385;-64
2023/12/13 02:40:46;;;;;;;9.50;7.47;;;;;;;-3.10;100.00;100737.81;5054372;28;20048;-63
2023/12/13 02:43:11;;;;;;;11.30;7.47;;;;;;;-3.17;100.00;100723.41;5055251;28;20079;-64
2023/12/13 02:45:37;;;;;;;9.70;5.93;;;;;;;-3.06;100.00;100733.28;5055827;28;20044;-63
2023/12/13 02:48:03;;;;;;;9.40;6.13;;;;;;;-3.03;100.00;100744.38;5070139;28;20037;-65
2023/12/13 02:50:29;;;;;;;9.02;7.45;;;;;;;-3.00;100.00;100743.38;5054594;28;20040;-66
2023/12/13 02:52:54;;;;;;;8.47;6.27;;;;;;;-2.94;100.00;100737.88;5054498;28;20408;-64
2023/12/13 02:55:20;;;;;;;10.00;6.90;;;;;;;-2.97;100.00;100728.44;5054489;28;20764;-65
2023/12/13 02:57:45;;;;;;;10.30;7.00;;;;;;;-3.01;100.00;100739.94;5054672;28;20036;-65
2023/12/13 03:00:11;;;;;;;9.47;6.33;;;;;;;-3.13;100.00;100722.34;5054899;28;20103;-64
2023/12/13 03:02:39;;;;;;;12.27;6.75;;;;;;;-2.96;100.00;100731.88;5054895;28;20043;-66
2023/12/13 03:05:06;;;;;;;8.05;6.22;;;;;;;-3.05;100.00;100714.13;5053744;28;20041;-66
2023/12/13 03:07:32;;;;;;;6.80;5.82;;;;;;;-3.28;100.00;100674.44;5054644;28;20053;-66
2023/12/13 03:09:59;;;;;;;7.63;5.67;;;;;;;-3.07;100.00;100701.19;5054228;28;20056;-64
2023/12/13 03:12:25;;;;;;;9.85;6.50;;;;;;;-2.96;100.00;100729.28;5053876;28;20496;-65
2023/12/13 03:14:51;;;;;;;8.13;6.03;;;;;;;-2.89;100.00;100736.72;5054328;28;20044;-66
2023/12/13 03:17:17;;;;;;;9.77;6.90;;;;;;;-2.95;100.00;100724.00;5054051;28;20042;-65
2023/12/13 03:19:42;;;;;;;7.23;5.73;;;;;;;-3.20;100.00;100668.84;5052783;28;20036;-66
2023/12/13 03:22:08;;;;;;;8.33;5.67;;;;;;;-3.02;100.00;100717.41;5054051;28;20075;-65
2023/12/13 03:24:35;;;;;;;7.87;6.23;;;;;;;-2.91;100.00;100748.97;5054130;28;20064;-66
2023/12/13 03:27:00;;;;;;;9.18;5.30;;;;;;;-3.02;100.00;100724.38;5053139;28;20122;-65
2023/12/13 03:29:26;;;;;;;9.23;6.00;;;;;;;-3.14;100.00;100705.03;5053614;28;20453;-65
2023/12/13 03:31:51;;;;;;;9.70;6.43;;;;;;;-2.89;100.00;100734.13;5054438;28;20040;-66
2023/12/13 03:34:17;;;;;;;7.50;6.20;;;;;;;-2.84;100.00;100734.72;5054109;28;20033;-64
2023/12/13 03:36:42;;;;;;;7.60;5.30;;;;;;;-3.18;100.00;100667.88;5052796;28;20032;-65
2023/12/13 03:39:08;;;;;;;8.73;6.23;;;;;;;-2.78;100.00;100743.16;5053869;28;20495;-65
2023/12/13 03:41:34;;;;;;;6.73;5.33;;;;;;;-2.87;100.00;100727.06;5052524;28;20124;-65
2023/12/13 03:44:00;;;;;;;15.15;9.85;;;;;;;-2.79;100.00;100731.03;5053921;28;20066;-64
2023/12/13 03:46:26;;;;;;;7.95;5.03;;;;;;;-2.90;100.00;100714.16;5053755;28;20496;-64
2023/12/13 03:48:51;;;;;;;8.37;6.00;;;;;;;-2.77;100.00;100732.66;5053621;28;20119;-65
2023/12/13 03:51:17;;;;;;;10.20;6.83;;;;;;;-2.77;100.00;100737.88;5051874;28;20040;-64
2023/12/13 03:53:42;;;;;;;8.33;5.80;;;;;;;-2.87;100.00;100715.81;5052985;28;20405;-65
2023/12/13 03:56:10;;;;;;;7.37;5.30;;;;;;;-2.79;100.00;100723.22;5053546;28;20044;-65
2023/12/13 03:58:36;;;;;;;7.38;5.47;;;;;;;-2.66;100.00;100742.50;5053577;28;20125;-64
2023/12/13 04:01:01;;;;;;;9.93;6.28;;;;;;;-2.80;100.00;100725.00;5053522;28;20051;-66
2023/12/13 04:03:27;;;;;;;6.00;4.73;;;;;;;-2.74;100.00;100742.06;5053563;28;20033;-67
2023/12/13 04:05:53;;;;;;;7.63;5.17;;;;;;;-2.89;100.00;100709.81;5052981;28;20080;-66
2023/12/13 04:08:19;;;;;;;7.77;5.60;;;;;;;-2.73;100.00;100733.34;5053432;28;20048;-64
2023/12/13 04:10:44;;;;;;;6.93;5.70;;;;;;;-2.68;100.00;100731.31;5053235;28;20045;-65
2023/12/13 04:13:10;;;;;;;6.80;5.70;;;;;;;-2.60;100.00;100742.22;5053105;28;20041;-65
2023/12/13 04:15:36;;;;;;;6.13;4.90;;;;;;;-2.85;100.00;100701.78;5053187;28;20124;-66
2023/12/13 04:18:01;;;;;;;10.30;5.67;;;;;;;-2.65;100.00;100733.78;5053090;28;20044;-64
2023/12/13 04:20:27;;;;;;;6.03;5.13;;;;;;;-2.61;100.00;100737.91;5052962;28;20040;-66
2023/12/13 04:22:52;;;;;;;9.40;5.10;;;;;;;-2.60;100.00;100747.44;5053916;28;20128;-65
2023/12/13 04:25:18;;;;;;;7.27;4.73;;;;;;;-2.69;100.00;100721.81;5052360;28;20047;-66
2023/12/13 04:27:47;;;;;;;6.70;4.68;;;;;;;-2.69;100.00;100716.59;5052075;28;20024;-69
2023/12/13 04:30:13;;;;;;;7.10;4.65;;;;;;;-2.67;100.00;100722.59;5053192;28;20095;-63
2023/12/13 04:32:39;;;;;;;9.38;5.18;;;;;;;-2.59;100.00;100733.47;5052966;28;20029;-68
2023/12/13 04:35:06;;;;;;;6.67;5.33;;;;;;;-2.57;100.00;100737.69;5052617;28;20036;-64
2023/12/13 04:37:32;;;;;;;8.57;5.80;;;;;;;-2.61;100.00;100724.88;5052488;28;20029;-66
2023/12/13 04:39:58;;;;;;;7.13;5.03;;;;;;;-2.55;100.00;100724.56;5050559;28;20035;-66
2023/12/13 04:42:24;;;;;;;8.20;5.80;;;;;;;-2.63;100.00;100703.25;5052674;28;20045;-66
2023/12/13 04:44:50;;;;;;;6.10;5.38;;;;;;;-2.56;100.00;100713.28;5052666;28;20472;-65
2023/12/13 04:47:15;;;;;;;5.17;4.60;;;;;;;-2.71;100.00;100708.03;5052728;28;20170;-65
2023/12/13 04:49:41;;;;;;;6.77;4.77;;;;;;;-2.56;100.00;100722.88;5052229;28;20067;-63
2023/12/13 04:52:06;;;;;;;9.97;5.33;;;;;;;-2.50;100.00;100733.00;5052263;28;20063;-66
2023/12/13 04:54:32;;;;;;;6.73;5.50;;;;;;;-2.52;100.00;100729.63;5051320;28;20033;-68
2023/12/13 04:56:58;;;;;;;6.00;5.37;;;;;;;-2.64;100.00;100698.97;5050707;28;20037;-66
2023/12/13 04:59:24;;;;;;;6.87;5.33;;;;;;;-2.51;100.00;100731.31;5043046;28;20037;-65
2023/12/13 05:01:49;;;;;;;6.87;6.23;;;;;;;-2.48;100.00;100731.13;5044580;28;20044;-66
2023/12/13 05:04:15;;;;;;;7.13;5.80;;;;;;;-2.57;100.00;100702.94;5032005;28;20272;-68
2023/12/13 05:06:41;;;;;;;9.80;6.33;;;;;;;-2.43;100.00;100723.91;5031377;28;20088;-67
2023/12/13 05:09:07;;;;;;;6.07;5.47;;;;;;;-2.42;100.00;100716.94;5032394;28;20092;-66
2023/12/13 05:11:33;;;;;;;9.93;5.20;;;;;;;-2.43;100.00;100718.69;5036378;28;20079;-63
2023/12/13 05:13:59;;;;;;;6.20;5.60;;;;;;;-2.44;100.00;100717.00;5051819;28;20072;-66
2023/12/13 05:16:24;;;;;;;8.43;6.20;;;;;;;-2.37;100.00;100725.34;5050867;28;20562;-65
2023/12/13 05:18:50;;;;;;;8.43;6.50;;;;;;;-2.52;100.00;100708.75;5051660;28;20036;-66
2023/12/13 05:21:15;;;;;;;7.50;6.00;;;;;;;-2.40;100.00;100728.97;5048687;28;20408;-66
2023/12/13 05:23:41;;;;;;;7.07;5.80;;;;;;;-2.46;100.00;100708.44;5050767;28;20496;-63
2023/12/13 05:26:07;;;;;;;9.20;6.47;;;;;;;-2.42;100.00;100717.78;5051963;28;20047;-66
2023/12/13 05:28:32;;;;;;;42.17;20.17;;;;;;;-3.11;100.00;100605.88;5050259;28;20065;-66
2023/12/13 05:30:58;;;;;;;10.43;6.73;;;;;;;-2.55;100.00;100694.13;5050258;28;20399;-68
2023/12/13 05:33:24;;;;;;;7.93;6.83;;;;;;;-2.35;100.00;100729.56;5051401;28;20449;-67
2023/12/13 05:35:49;;;;;;;38.53;16.47;;;;;;;-2.51;100.00;100713.06;5050428;28;20051;-66
2023/12/13 05:38:15;;;;;;;16.33;12.50;;;;;;;-2.49;100.00;100703.38;5050815;28;20551;-66
2023/12/13 05:40:41;;;;;;;14.67;11.70;;;;;;;-2.41;100.00;100708.19;5033832;28;20059;-65
2023/12/13 05:43:07;;;;;;;13.67;8.77;;;;;;;-2.27;100.00;100735.22;5051124;28;20502;-67
2023/12/13 05:45:32;;;;;;;23.07;11.13;;;;;;;-2.33;100.00;100719.03;5051259;28;20154;-67
2023/12/13 05:47:58;;;;;;;8.87;7.07;;;;;;;-2.28;100.00;100728.34;5050484;28;20039;-66
2023/12/13 05:50:24;;;;;;;7.30;6.33;;;;;;;-2.32;100.00;100705.06;5051337;28;20037;-65
2023/12/13 05:52:49;;;;;;;9.80;5.83;;;;;;;-2.31;100.00;100710.25;5052142;28;20048;-66
2023/12/13 05:55:15;;;;;;;8.93;7.33;;;;;;;-2.34;100.00;100712.97;5053773;28;20271;-65
2023/12/13 05:57:41;;;;;;;11.38;7.85;;;;;;;-2.30;100.00;100713.69;5052310;28;20047;-68
2023/12/13 06:00:08;;;;;;;12.60;6.70;;;;;;;-2.19;100.00;100721.78;5051795;28;20036;-66
2023/12/13 06:02:34;;;;;;;10.85;7.43;;;;;;;-2.16;100.00;100726.81;5051435;28;20033;-66
2023/12/13 06:05:02;;;;;;;11.40;6.68;;;;;;;-2.13;100.00;100731.03;5051730;28;20067;-65
2023/12/13 06:07:32;;;;;;;7.03;5.68;;;;;;;-2.30;100.00;100704.09;5052085;28;20059;-67
2023/12/13 06:09:58;;;;;;;11.65;7.10;;;;;;;-2.13;100.00;100728.41;5052667;28;20555;-69
2023/12/13 06:12:24;;;;;;;10.13;6.67;;;;;;;-2.52;100.00;100667.03;5053335;28;20044;-68
2023/12/13 06:14:50;;;;;;;10.07;6.87;;;;;;;-2.09;100.00;100733.38;5053394;28;20267;-68
2023/12/13 06:17:16;;;;;;;11.33;7.07;;;;;;;-2.07;100.00;100731.53;5052954;28;20036;-66
2023/12/13 06:19:41;;;;;;;11.77;6.43;;;;;;;-2.12;100.00;100717.06;5052152;28;20029;-68
2023/12/13 06:22:07;;;;;;;14.77;10.03;;;;;;;-2.10;100.00;100725.63;5049857;28;20045;-66
2023/12/13 06:24:34;;;;;;;9.43;7.20;;;;;;;-2.08;100.00;100723.78;5050969;28;20120;-66
2023/12/13 06:26:59;;;;;;;10.10;6.55;;;;;;;-2.11;100.00;100716.97;5050490;28;20064;-65
2023/12/13 06:29:25;;;;;;;7.57;6.20;;;;;;;-2.05;100.00;100728.84;5050828;28;20492;-65
2023/12/13 06:31:51;;;;;;;10.00;7.00;;;;;;;-2.08;100.00;100724.63;5049099;28;20108;-66
2023/12/13 06:34:17;;;;;;;8.10;7.03;;;;;;;-2.33;100.00;100680.75;5049261;28;20087;-67
2023/12/13 06:36:42;;;;;;;11.20;7.67;;;;;;;-2.10;100.00;100723.03;5050750;28;20553;-66
2023/12/13 06:39:11;;;;;;;10.27;7.27;;;;;;;-2.05;100.00;100737.50;5050597;28;20489;-66
2023/12/13 06:41:37;;;;;;;10.18;7.47;;;;;;;-2.08;100.00;100727.25;5050177;28;20546;-66
2023/12/13 06:44:03;;;;;;;10.05;7.75;;;;;;;-1.96;100.00;100738.81;5051158;28;20033;-66
2023/12/13 06:46:29;;;;;;;8.97;6.90;;;;;;;-2.21;100.00;100703.59;5049404;28;20033;-68
2023/12/13 06:48:55;;;;;;;6.80;5.67;;;;;;;-1.91;100.00;100752.44;5050554;28;20029;-66
2023/12/13 06:51:21;;;;;;;6.90;6.20;;;;;;;-1.92;100.00;100745.53;5050611;28;20484;-65
2023/12/13 06:53:47;;;;;;;7.73;6.47;;;;;;;-2.00;100.00;100737.28;5049235;28;20044;-65
2023/12/13 06:56:12;;;;;;;7.93;6.90;;;;;;;-1.96;100.00;100752.69;5048903;28;20059;-65
2023/12/13 06:58:38;;;;;;;9.53;6.13;;;;;;;-2.41;100.00;100675.13;5049160;28;20075;-66
2023/12/13 07:01:04;;;;;;;9.40;6.60;;;;;;;-1.95;100.00;100745.69;5050436;28;20077;-66
2023/12/13 07:03:30;;;;;;;9.85;7.20;;;;;;;-1.96;100.00;100736.19;5051283;28;20426;-65
2023/12/13 07:05:56;;;;;;;8.93;6.87;;;;;;;-1.84;100.00;100743.34;5053958;28;20051;-66
2023/12/13 07:08:21;;;;;;;11.13;6.63;;;;;;;-1.89;100.00;100746.22;5054099;28;20063;-66
2023/12/13 07:10:49;;;;;;;7.00;5.90;;;;;;;-2.06;100.00;100703.66;5054041;28;20088;-65
2023/12/13 07:13:14;;;;;;;6.97;6.28;;;;;;;-1.79;100.00;100730.03;5053474;28;20048;-67
2023/12/13 07:15:40;;;;;;;8.13;6.40;;;;;;;-1.80;100.00;100734.41;5053606;28;20408;-66
2023/12/13 07:18:06;;;;;;;9.00;7.17;;;;;;;-1.74;100.00;100744.50;5049785;28;20147;-65
2023/12/13 07:20:32;;;;;;;7.67;6.17;;;;;;;-1.81;100.00;100732.72;5053905;28;20037;-66
2023/12/13 07:22:58;;;;;;;8.27;5.73;;;;;;;-1.80;100.00;100746.63;5053717;28;20040;-68
2023/12/13 07:25:23;;;;;;;9.23;5.90;;;;;;;-1.80;100.00;100757.91;5053914;28;20044;-70
2023/12/13 07:27:49;;;;;;;8.70;5.80;;;;;;;-1.80;100.00;100749.22;5052326;28;20753;-66
2023/12/13 07:30:15;;;;;;;10.20;6.23;;;;;;;-1.84;100.00;100740.72;5053791;28;20072;-66
2023/12/13 07:32:41;;;;;;;8.30;7.43;;;;;;;-1.67;100.00;100763.31;5052314;28;20036;-68
2023/12/13 07:35:08;;;;;;;9.83;6.50;;;;;;;-1.84;100.00;100748.56;5053465;28;20829;-68
2023/12/13 07:37:35;;;;;;;9.15;6.95;;;;;;;-1.68;100.00;100759.03;5053405;28;20271;-66
2023/12/13 07:40:03;;;;;;;11.30;7.45;;;;;;;-1.73;100.00;100745.38;5051837;28;20029;-67
2023/12/13 07:42:31;;;;;;;9.30;6.90;;;;;;;-1.78;100.00;100739.53;5050530;28;20476;-66
2023/12/13 07:44:57;;;;;;;23.95;8.52;;;;;;;-1.77;100.00;100736.84;5052953;28;20095;-68
2023/12/13 07:47:23;;;;;;;6.50;5.70;;;;;;;-1.69;100.00;100750.34;5053537;28;20032;-67
2023/12/13 07:49:49;;;;;;;9.70;6.33;;;;;;;-1.80;100.00;100729.19;5050701;28;20067;-67
2023/12/13 07:52:15;;;;;;;8.77;7.17;;;;;;;-1.74;100.00;100749.72;5053054;28;20750;-67
2023/12/13 07:54:42;;;;;;;8.73;6.23;;;;;;;-1.73;100.00;100746.22;5053550;28;20082;-67
2023/12/13 07:57:08;;;;;;;8.83;5.83;;;;;;;-1.76;100.00;100740.28;5053559;28;20094;-68
2023/12/13 07:59:34;;;;;;;7.97;5.90;;;;;;;-1.68;100.00;100770.31;5052282;28;20279;-67
2023/12/13 08:01:59;;;;;;;8.37;5.83;;;;;;;-1.73;100.00;100759.28;5054277;28;20264;-66
2023/12/13 08:04:25;;;;;;;11.07;6.40;;;;;;;-1.76;100.00;100741.13;5051996;28;20502;-66
2023/12/13 08:06:50;;;;;;;10.17;6.30;;;;;;;-1.79;100.00;100738.69;5053390;28;20127;-66
2023/12/13 08:09:19;;;;;;;10.50;6.90;;;;;;;-1.98;100.00;100702.34;5051599;28;20049;-68
2023/12/13 08:11:46;;;;;;;8.80;5.68;;;;;;;-1.58;100.00;100770.63;5052967;28;20566;-69
2023/12/13 08:14:14;;;;;;;15.07;6.40;;;;;;;-1.49;100.00;100769.25;5052573;28;20041;-72
2023/12/13 08:16:40;;;;;;;22.40;9.17;;;;;;;-1.39;100.00;100771.28;5053042;28;20272;-68
2023/12/13 08:19:06;;;;;;;7.57;6.40;;;;;;;-1.52;100.00;100754.59;5085026;28;20658;-66
2023/12/13 08:21:32;;;;;;;6.37;5.60;;;;;;;-1.81;100.00;100717.06;5052644;28;20064;-68
2023/12/13 08:23:58;;;;;;;6.10;5.43;;;;;;;-1.51;100.00;100778.97;5052854;28;20077;-72
2023/12/13 08:26:25;;;;;;;12.60;7.63;;;;;;;-1.52;100.00;100785.09;5053138;28;20303;-71
2023/12/13 08:28:51;;;;;;;7.47;5.67;;;;;;;-1.63;100.00;100770.88;5050008;28;20032;-68
2023/12/13 08:31:18;;;;;;;6.07;5.47;;;;;;;-1.70;100.00;100750.44;5034888;28;20791;-68
2023/12/13 08:33:44;;;;;;;9.43;6.40;;;;;;;-1.58;100.00;100787.13;5053006;28;20315;-70
2023/12/13 08:36:11;;;;;;;8.17;6.30;;;;;;;-1.54;100.00;100789.56;5052743;28;20389;-68
2023/12/13 08:38:38;;;;;;;6.87;5.73;;;;;;;-1.54;100.00;100787.81;5052422;28;20860;-66
2023/12/13 08:41:07;;;;;;;12.03;5.93;;;;;;;-1.52;100.00;100792.94;5051055;28;20809;-66
2023/12/13 08:43:32;;;;;;;8.45;5.68;;;;;;;-1.72;100.00;100768.78;5048802;28;20271;-66
2023/12/13 08:45:58;;;;;;;10.67;5.77;;;;;;;-1.65;100.00;100770.13;5052998;28;20044;-68
2023/12/13 08:48:24;;;;;;;9.60;5.87;;;;;;;-1.56;100.00;100782.66;5053101;28;20511;-67
2023/12/13 08:50:50;;;;;;;10.77;6.40;;;;;;;-1.63;100.00;100756.97;5051571;28;20067;-66
2023/12/13 08:53:15;;;;;;;8.27;6.00;;;;;;;-1.47;100.00;100778.69;5049534;28;20500;-67
2023/12/13 08:55:41;;;;;;;7.63;6.37;;;;;;;-1.54;100.00;100763.47;5050164;28;20477;-68
2023/12/13 08:58:07;;;;;;;9.93;6.27;;;;;;;-1.39;100.00;100786.13;5032158;28;20041;-69
2023/12/13 09:00:32;;;;;;;6.87;6.10;;;;;;;-1.50;100.00;100778.03;5049615;28;20067;-66
2023/12/13 09:02:58;;;;;;;7.53;6.50;;;;;;;-1.46;100.00;100800.44;5048185;28;20077;-65
2023/12/13 09:05:23;;;;;;;9.73;7.00;;;;;;;-1.60;100.00;100781.16;5050007;28;20044;-68
2023/12/13 09:07:50;;;;;;;8.23;7.30;;;;;;;-1.37;100.00;100794.72;5051891;28;20053;-66
2023/12/13 09:10:16;;;;;;;8.80;6.10;;;;;;;-1.44;100.00;100777.72;5052122;28;20041;-67
2023/12/13 09:12:45;;;;;;;8.13;6.17;;;;;;;-1.44;100.00;100794.22;5050871;28;20379;-68
2023/12/13 09:15:11;;;;;;;7.70;5.77;;;;;;;-1.51;100.00;100774.56;5051899;28;20651;-67
2023/12/13 09:17:37;;;;;;;6.67;5.67;;;;;;;-1.50;100.00;100791.09;5051785;28;20206;-65
2023/12/13 09:20:02;;;;;;;9.30;6.10;;;;;;;-1.52;100.00;100801.63;5051969;28;20079;-67
2023/12/13 09:22:30;;;;;;;7.57;6.07;;;;;;;-1.60;100.00;100782.94;5051984;28;20031;-68
2023/12/13 09:24:55;;;;;;;15.10;8.07;;;;;;;-1.58;100.00;100786.28;5051802;28;20630;-68
2023/12/13 09:27:23;;;;;;;6.87;5.93;;;;;;;-1.47;100.00;100804.81;5051241;28;20045;-66
2023/12/13 09:29:48;;;;;;;9.18;6.93;;;;;;;-1.59;100.00;100792.44;5052010;28;20032;-66
2023/12/13 09:32:14;;;;;;;9.03;6.67;;;;;;;-1.58;100.00;100802.81;5051746;28;20033;-68
2023/12/13 09:34:39;;;;;;;8.17;5.93;;;;;;;-1.50;100.00;100811.97;5051870;28;20033;-66
2023/12/13 09:37:06;;;;;;;10.40;6.93;;;;;;;-1.57;100.00;100798.44;5051749;28;20029;-66
2023/12/13 09:39:34;;;;;;;7.80;6.33;;;;;;;-1.52;100.00;100800.78;5051306;28;20098;-67
2023/12/13 09:42:03;;;;;;;7.50;5.72;;;;;;;-1.44;100.00;100796.84;5051820;28;20405;-69
2023/12/13 09:44:30;;;;;;;10.23;6.82;;;;;;;-1.47;100.00;100796.13;5052350;28;20045;-66
2023/12/13 09:46:58;;;;;;;7.07;6.17;;;;;;;-1.40;100.00;100793.13;5050757;28;20068;-67
2023/12/13 09:49:24;;;;;;;8.50;6.72;;;;;;;-1.31;100.00;100805.66;5034483;28;20267;-69
2023/12/13 09:51:50;;;;;;;5.67;5.10;;;;;;;-1.33;100.00;100801.44;5051998;28;20082;-65
2023/12/13 09:54:16;;;;;;;8.13;5.90;;;;;;;-1.35;100.00;100795.47;5052057;28;20079;-67
2023/12/13 09:56:42;;;;;;;9.50;6.90;;;;;;;-1.44;100.00;100767.25;5052048;28;20263;-67
2023/12/13 09:59:07;;;;;;;7.73;6.00;;;;;;;-1.29;100.00;100784.66;5051548;28;20447;-64
2023/12/13 10:01:33;;;;;;;7.43;6.40;;;;;;;-1.16;100.00;100801.31;5051347;28;20033;-66
2023/12/13 10:03:59;;;;;;;6.90;5.90;;;;;;;-1.38;100.00;100751.25;5050340;28;20036;-68
2023/12/13 10:06:24;;;;;;;7.47;5.60;;;;;;;-1.13;100.00;100800.34;5051602;28;20079;-69
2023/12/13 10:08:57;;;;;;;9.50;5.73;;;;;;;-1.13;100.00;100801.19;5051293;28;20057;-68
2023/12/13 10:11:23;;;;;;;6.93;5.83;;;;;;;-1.05;100.00;100809.41;5051291;28;20128;-67
2023/12/13 10:13:49;;;;;;;7.10;5.93;;;;;;;-1.21;100.00;100782.47;5051490;28;20283;-66
2023/12/13 10:16:15;;;;;;;8.80;6.30;;;;;;;-1.05;100.00;100814.66;5051209;28;20268;-65
2023/12/13 10:18:41;;;;;;;8.63;6.20;;;;;;;-1.13;100.00;100795.94;5050782;28;20270;-66
2023/12/13 10:21:11;;;;;;;11.93;6.67;;;;;;;-1.13;100.00;100802.94;5051300;28;20043;-65
2023/12/13 10:23:38;;;;;;;10.17;7.00;;;;;;;-1.25;100.00;100794.84;5051458;28;20504;-66
2023/12/13 10:26:05;;;;;;;9.50;6.33;;;;;;;-1.17;100.00;100806.63;5051311;28;20263;-66
2023/12/13 10:28:35;;;;;;;9.37;6.30;;;;;;;-1.13;100.00;100802.94;5051618;28;20276;-66
2023/12/13 10:31:01;;;;;;;10.47;6.00;;;;;;;-1.17;100.00;100797.03;5050934;28;20303;-66
2023/12/13 10:33:27;;;;;;;7.07;5.93;;;;;;;-1.08;100.00;100806.13;5049697;28;20869;-67
2023/12/13 10:35:56;;;;;;;10.63;5.13;;;;;;;-1.01;100.00;100802.25;5049590;28;20134;-65
2023/12/13 10:38:24;;;;;;;10.73;6.83;;;;;;;-0.98;100.00;100792.44;5050630;28;20037;-65
2023/12/13 10:40:50;;;;;;;7.67;6.37;;;;;;;-0.71;100.00;100808.31;5055125;28;20259;-65
2023/12/13 10:43:16;;;;;;;8.83;6.03;;;;;;;-0.64;100.00;100790.47;5054948;28;20314;-65
2023/12/13 10:45:49;;;;;;;7.63;5.53;;;;;;;-0.64;100.00;100795.72;5055068;28;20041;-66
2023/12/13 10:48:17;;;;;;;11.87;5.93;;;;;;;-0.75;100.00;100790.28;5054855;28;20271;-67
2023/12/13 10:50:48;;;;;;;12.23;7.10;;;;;;;-0.66;100.00;100824.56;5087086;28;20390;-69
2023/12/13 10:53:16;;;;;;;9.17;5.90;;;;;;;-0.79;100.00;100822.78;5054822;28;20469;-67
2023/12/13 10:55:43;;;;;;;10.55;6.35;;;;;;;-1.07;100.00;100792.97;5054661;28;20275;-67
2023/12/13 10:58:09;;;;;;;10.03;6.40;;;;;;;-1.02;100.00;100826.69;5055125;28;20091;-65
2023/12/13 11:00:36;;;;;;;8.43;6.80;;;;;;;-1.34;100.00;100773.66;5054826;28;20473;-66
2023/12/13 11:03:39;;;;;;;8.90;7.17;;;;;;;-1.10;100.00;100813.22;5053527;28;20037;-65
2023/12/13 11:06:05;;;;;;;9.50;6.77;;;;;;;-1.24;100.00;100821.81;5054625;28;20627;-66
2023/12/13 11:08:38;;;;;;;8.30;6.70;;;;;;;-1.33;100.00;100806.69;5056428;28;20291;-68
2023/12/13 11:11:07;;;;;;;7.63;6.67;;;;;;;-1.38;100.00;100798.25;5057298;28;20662;-66